Airfield :
LOGIN :

Register | Disclaimer

   EN    FR    IT 

 










Legend :    VFR   Marginal VFR   IFR   Intensive IFR   Very Intensive IFR
Visi :
Ceiling :
>= 8 km
>= 3000ft
5 to 8 km
1000 to 3000 ft
1500m to 5 km
500 to 1000 ft
800 to 1500m
200 to 500 ft
< 800m
< 200 ft
Symbols :   Thunderstorms  Fog  Heavy snow  Heavy precipitations  Wind > 20 kt
SIGMETs :     Misc.  Thunderstorms  Icing  Turbulence  Mountain Waves  Volcanic Ashes







- Airport Elevation : 0 ft


ENSL - Sleipner A Platform

CURRENT METAR :
  • 191220Z 15022KT CAVOK 09/05 Q1035 W05/S3

EXPIRED METARs :
  • 191150Z 15021KT CAVOK 09/06 Q1035 W05/S3
  • 191120Z 15021KT CAVOK 09/06 Q1035 W05/S3
  • 191050Z 15018KT CAVOK 08/06 Q1035 W05/S3
  • 191020Z 15019KT CAVOK 08/06 Q1035 W05/S3
  • 190950Z 16018KT CAVOK 09/06 Q1036 W05/S3

TAF TAF ENSL
Valid from the 19 at 12:00 until the 19 at 17:00 UTC


191100Z 1912/1917 15020KT CAVOK
No reported NOTAMs for that airfield.



MET'MAP, your aeronautical weather chart ! - Copyright ORBIFLY December 2007 - Disclaimer

ORBIFLY MET'MAP TEAM :

Programming & Development : Alexandra Zaïnal
Concept & Development : Baudouin d'Aumeries
Co-Development & Prog : Marc-Olivier Méhu
Technical & hardware support : Manuel Goepfert

Contact : metmap@orbifly.com




SOURCES & CREDITS :

   NOAA